Terminal Aerodrome Forecast
Issued by NWS

Home | Current Version | Previous Version | Text Only | Print | Product List | Glossary On
Versions: 1 2 3 4 5 6 7 8 9 10 11 12 13 14 15 16 17 18 19 20 21
000
FTUS41 KILN 020500 RRA
TAFLCK
TAF
KLCK 020544Z 0206/0306 16007KT P6SM BKN250
     FM021300 18012KT P6SM -SHRA OVC050
      TEMPO 0213/0216 5SM -SHRA OVC035
     FM021600 20018G28KT P6SM BKN060
     FM022200 21014G24KT 4SM -SHRA VCTS OVC035CB
      TEMPO 0223/0302 4SM -TSRA OVC025CB
     FM030200 22008KT 3SM SHRA VCTS OVC015CB=

USA.gov is the U.S. government's official web portal to all federal, state and local government web resources and services.